createdAt,value
2024-03-05T00:01:23.078Z,77.62
2024-03-05T00:06:26.674Z,77.78
2024-03-05T00:11:29.946Z,77.68
2024-03-05T00:16:33.419Z,77.31
2024-03-05T00:21:36.711Z,77.76
2024-03-05T00:26:40.136Z,78.05
2024-03-05T00:31:43.466Z,78.35
2024-03-05T00:36:46.955Z,78.71
2024-03-05T00:41:50.155Z,79.10
2024-03-05T00:46:54.368Z,79.64
2024-03-05T00:51:57.598Z,79.39
2024-03-05T00:57:00.710Z,80.89
2024-03-05T01:02:04.099Z,82.03
2024-03-05T01:07:07.623Z,82.39
2024-03-05T01:12:11.039Z,83.18
2024-03-05T01:17:16.223Z,82.44
2024-03-05T01:22:19.343Z,83.42
2024-03-05T01:27:23.224Z,84.07
2024-03-05T01:32:26.564Z,84.50
2024-03-05T01:37:29.681Z,84.85
2024-03-05T01:42:33.570Z,85.63
2024-03-05T01:47:38.422Z,86.40
2024-03-05T01:52:42.395Z,86.60
2024-03-05T01:57:48.447Z,87.13
2024-03-05T02:02:52.044Z,87.18
2024-03-05T02:07:55.561Z,87.72
2024-03-05T02:12:58.769Z,87.75
2024-03-05T02:18:02.223Z,87.75
2024-03-05T02:23:05.488Z,87.52
2024-03-05T02:28:09.918Z,87.78
2024-03-05T02:33:14.711Z,87.78
2024-03-05T02:38:17.870Z,87.36
2024-03-05T02:43:22.454Z,86.74
2024-03-05T02:48:25.720Z,86.80
2024-03-05T02:53:29.031Z,86.91
2024-03-05T02:58:32.503Z,86.99
2024-03-05T03:03:36.432Z,87.04
2024-03-05T03:08:39.678Z,87.25
2024-03-05T03:13:43.084Z,87.40
2024-03-05T03:18:46.259Z,87.27
2024-03-05T03:23:50.127Z,87.62
2024-03-05T03:28:54.105Z,87.64
2024-03-05T03:33:57.453Z,87.84
2024-03-05T03:39:00.487Z,87.92
2024-03-05T03:44:03.668Z,87.99
2024-03-05T03:49:07.089Z,88.65
2024-03-05T03:54:10.201Z,88.88
2024-03-05T03:59:14.618Z,89.35
2024-03-05T04:04:17.863Z,89.31
2024-03-05T04:09:21.253Z,88.65
2024-03-05T04:14:24.395Z,88.83
2024-03-05T04:19:27.683Z,88.60
2024-03-05T04:24:32.534Z,89.09
2024-03-05T04:29:35.823Z,88.95
2024-03-05T04:34:43.983Z,89.08
2024-03-05T04:39:47.963Z,89.32
2024-03-05T04:44:51.287Z,89.28
2024-03-05T04:49:54.894Z,89.39
2024-03-05T04:54:58.616Z,89.56
2024-03-05T05:00:01.721Z,89.48
2024-03-05T05:05:05.484Z,89.98
2024-03-05T05:10:09.369Z,90.19
2024-03-05T05:15:13.911Z,90.18
2024-03-05T05:20:17.358Z,90.30
2024-03-05T05:25:25.298Z,90.59
2024-03-05T05:30:28.666Z,90.82
2024-03-05T05:35:31.865Z,90.62
2024-03-05T05:40:35.496Z,90.66
2024-03-05T05:45:39.411Z,90.92
2024-03-05T05:50:43.832Z,90.84
2024-03-05T05:55:47.262Z,90.83
2024-03-05T06:00:52.217Z,90.96
2024-03-05T06:05:55.426Z,90.78
2024-03-05T06:10:58.548Z,90.57
2024-03-05T06:16:01.846Z,90.51
2024-03-05T06:21:06.688Z,90.52
2024-03-05T06:26:09.725Z,90.24
2024-03-05T06:31:13.110Z,90.16
2024-03-05T06:36:16.520Z,90.10
2024-03-05T06:41:20.437Z,90.06
2024-03-05T06:46:31.443Z,89.83
2024-03-05T06:51:43.370Z,89.53
2024-03-05T06:56:46.547Z,89.71
2024-03-05T07:01:50.141Z,89.72
2024-03-05T07:06:56.353Z,89.86
2024-03-05T07:11:59.470Z,89.82
2024-03-05T07:17:03.620Z,89.66
2024-03-05T07:22:08.436Z,89.74
2024-03-05T07:27:13.480Z,90.11
2024-03-05T07:32:17.657Z,90.35
2024-03-05T07:37:22.349Z,90.02
2024-03-05T07:42:25.459Z,90.03
2024-03-05T07:47:28.667Z,90.01
2024-03-05T07:52:32.010Z,89.90
2024-03-05T07:57:36.208Z,89.91
2024-03-05T08:02:41.412Z,90.11
2024-03-05T08:07:45.215Z,90.01
2024-03-05T08:12:49.210Z,89.98
2024-03-05T08:17:53.070Z,90.12
2024-03-05T08:22:57.189Z,90.16
2024-03-05T08:28:00.797Z,90.01
2024-03-05T08:33:05.176Z,89.73
2024-03-05T08:38:10.756Z,89.42
2024-03-05T08:43:15.831Z,89.14
2024-03-05T08:48:19.263Z,88.86
2024-03-05T08:53:22.831Z,88.65
2024-03-05T08:58:26.105Z,88.52
2024-03-05T09:03:29.688Z,88.27
2024-03-05T09:08:33.508Z,86.97
2024-03-05T09:13:36.762Z,86.00
2024-03-05T09:18:40.768Z,85.93
2024-03-05T09:23:44.065Z,85.46
2024-03-05T09:28:47.313Z,85.52
2024-03-05T09:33:50.468Z,84.86
2024-03-05T09:38:53.889Z,84.39
2024-03-05T09:43:58.141Z,83.90
2024-03-05T09:49:11.021Z,83.61
2024-03-05T09:54:18.762Z,83.56
2024-03-05T09:59:22.294Z,83.45
2024-03-05T10:04:28.287Z,83.42
2024-03-05T10:09:31.874Z,83.36
2024-03-05T10:14:36.311Z,83.03
2024-03-05T10:19:44.281Z,83.02
2024-03-05T10:24:47.434Z,83.05
2024-03-05T10:29:50.546Z,82.53
2024-03-05T10:34:53.723Z,82.63
2024-03-05T10:39:57.153Z,82.49
2024-03-05T10:45:00.567Z,81.84
2024-03-05T10:50:04.080Z,82.17
2024-03-05T10:55:12.575Z,82.36
2024-03-05T11:00:16.490Z,82.53
2024-03-05T11:05:20.180Z,82.62
2024-03-05T11:10:26.045Z,82.67
2024-03-05T11:15:29.646Z,82.81
2024-03-05T11:20:42.379Z,83.01
2024-03-05T11:25:50.387Z,83.38
2024-03-05T11:31:28.989Z,83.59
2024-03-05T11:36:35.690Z,83.79
2024-03-05T11:41:40.082Z,83.81
2024-03-05T11:46:53.699Z,84.08
2024-03-05T11:51:58.564Z,83.41
2024-03-05T11:57:02.357Z,83.03
2024-03-05T12:02:16.860Z,82.97
2024-03-05T12:07:20.395Z,83.07
2024-03-05T12:12:24.504Z,83.46
2024-03-05T12:17:27.652Z,83.49
2024-03-05T12:22:31.254Z,83.92
2024-03-05T12:27:35.760Z,83.99
2024-03-05T12:32:39.580Z,83.63
2024-03-05T12:37:42.926Z,83.54
2024-03-05T12:42:53.378Z,83.73
2024-03-05T12:47:59.286Z,83.81
2024-03-05T12:53:04.648Z,83.77
2024-03-05T12:58:10.288Z,83.45
2024-03-05T13:03:14.701Z,83.09
2024-03-05T13:08:18.056Z,83.30
2024-03-05T13:13:21.517Z,83.51
2024-03-05T13:18:24.625Z,83.63
2024-03-05T13:23:27.838Z,83.44
2024-03-05T13:28:31.164Z,83.44
2024-03-05T13:33:34.357Z,83.67
2024-03-05T13:38:37.973Z,83.86
2024-03-05T13:43:41.018Z,83.67
2024-03-05T13:48:44.429Z,83.85
2024-03-05T13:53:49.659Z,83.81
2024-03-05T13:58:52.982Z,83.88
2024-03-05T14:03:57.652Z,83.64
2024-03-05T14:09:01.829Z,83.67
2024-03-05T14:14:05.544Z,83.49
2024-03-05T14:19:09.170Z,83.61
2024-03-05T14:24:14.246Z,83.64
2024-03-05T14:29:17.427Z,84.00
2024-03-05T14:34:22.875Z,84.14
2024-03-05T14:39:26.300Z,84.19
2024-03-05T14:44:29.505Z,84.60
2024-03-05T14:49:32.882Z,84.74
2024-03-05T14:54:36.396Z,84.80
2024-03-05T14:59:39.658Z,85.03
2024-03-05T15:04:42.904Z,85.32
2024-03-05T15:09:46.985Z,85.49
2024-03-05T15:14:50.597Z,85.64
2024-03-05T15:19:53.715Z,85.98
2024-03-05T15:24:57.121Z,86.19
2024-03-05T15:30:00.276Z,86.46
2024-03-05T15:35:04.788Z,86.56
2024-03-05T15:40:16.892Z,86.68
2024-03-05T15:45:20.917Z,86.84
2024-03-05T15:50:25.012Z,87.03
2024-03-05T15:55:31.691Z,87.10
2024-03-05T16:00:39.615Z,87.27
2024-03-05T16:05:56.187Z,87.38
2024-03-05T16:11:09.008Z,87.52
2024-03-05T16:16:14.192Z,87.56
2024-03-05T16:21:17.924Z,87.57
2024-03-05T16:26:21.124Z,87.46
2024-03-05T16:31:24.532Z,87.36
2024-03-05T16:36:28.878Z,87.33
2024-03-05T16:41:34.501Z,87.38
2024-03-05T16:46:37.842Z,87.40
2024-03-05T16:51:43.473Z,87.43
2024-03-05T16:56:46.796Z,87.41
2024-03-05T17:01:50.778Z,87.29
2024-03-05T17:06:56.805Z,87.19
2024-03-05T17:12:01.884Z,87.20
2024-03-05T17:17:06.102Z,87.26
2024-03-05T17:22:10.436Z,87.25
2024-03-05T17:27:13.907Z,87.19
2024-03-05T17:32:17.138Z,87.08
2024-03-05T17:37:20.599Z,87.47
2024-03-05T17:42:24.280Z,87.71
2024-03-05T17:47:27.779Z,87.75
2024-03-05T17:52:31.100Z,87.97
2024-03-05T17:57:38.381Z,88.08
2024-03-05T18:02:43.710Z,88.15
2024-03-05T18:07:47.552Z,88.24
2024-03-05T18:12:52.199Z,88.46
2024-03-05T18:17:56.261Z,88.61
2024-03-05T18:23:01.729Z,88.69
2024-03-05T18:28:06.080Z,88.66
2024-03-05T18:33:13.053Z,88.78
2024-03-05T18:38:24.846Z,88.65
2024-03-05T18:43:33.823Z,88.74
2024-03-05T18:48:37.259Z,88.70
2024-03-05T18:53:46.588Z,88.76
2024-03-05T18:58:55.865Z,88.80
2024-03-05T19:04:05.323Z,88.83
2024-03-05T19:09:10.428Z,88.80
2024-03-05T19:14:14.076Z,88.78
2024-03-05T19:19:17.549Z,88.80
2024-03-05T19:24:21.054Z,88.77
2024-03-05T19:29:24.741Z,88.74
2024-03-05T19:34:28.535Z,88.75
2024-03-05T19:39:32.222Z,88.82
2024-03-05T19:44:38.917Z,88.85
2024-03-05T19:49:44.899Z,89.01
2024-03-05T19:55:06.018Z,88.94
2024-03-05T20:00:20.595Z,89.02
2024-03-05T20:05:27.883Z,89.13
2024-03-05T20:10:31.743Z,89.08
2024-03-05T20:15:35.593Z,89.07
2024-03-05T20:20:39.856Z,89.02
2024-03-05T20:25:43.314Z,88.99
2024-03-05T20:30:47.828Z,88.98
2024-03-05T20:35:51.965Z,89.00
2024-03-05T20:40:56.219Z,89.03
2024-03-05T20:45:59.407Z,89.05
2024-03-05T20:51:04.862Z,89.02
2024-03-05T20:56:10.001Z,89.08
2024-03-05T21:01:13.766Z,89.18
2024-03-05T21:06:17.198Z,89.00
2024-03-05T21:11:21.395Z,89.05
2024-03-05T21:16:25.209Z,89.16
2024-03-05T21:21:29.643Z,89.29
2024-03-05T21:26:53.247Z,89.37
2024-03-05T21:31:57.585Z,89.41
2024-03-05T21:37:01.516Z,89.33
2024-03-05T21:42:05.507Z,89.49
2024-03-05T21:47:09.396Z,89.51
2024-03-05T21:52:13.763Z,89.52
2024-03-05T21:57:16.744Z,89.90
2024-03-05T22:02:24.538Z,89.98
2024-03-05T22:07:30.696Z,89.99
2024-03-05T22:12:38.621Z,90.12
2024-03-05T22:17:43.279Z,90.06
2024-03-05T22:22:48.028Z,90.06
2024-03-05T22:27:52.331Z,90.04
2024-03-05T22:32:56.973Z,90.01
2024-03-05T22:38:00.310Z,90.02
2024-03-05T22:43:08.244Z,90.09
2024-03-05T22:48:11.887Z,90.35
2024-03-05T22:53:15.891Z,90.34
2024-03-05T22:58:19.647Z,90.20
2024-03-05T23:03:23.609Z,90.33
2024-03-05T23:08:26.885Z,90.28
2024-03-05T23:13:30.728Z,90.25
2024-03-05T23:18:34.655Z,90.21
2024-03-05T23:23:39.575Z,90.14
2024-03-05T23:28:42.835Z,90.04
2024-03-05T23:33:46.401Z,89.98
2024-03-05T23:38:49.818Z,89.97
2024-03-05T23:43:52.971Z,89.85
2024-03-05T23:48:56.745Z,89.84
2024-03-05T23:53:59.859Z,89.77
2024-03-05T23:59:03.196Z,89.75
